createdAt,value
2018-07-23T00:01:10.649Z,33.70
2018-07-23T00:03:38.912Z,34.70
2018-07-23T00:06:07.212Z,35.27
2018-07-23T00:08:35.441Z,38.90
2018-07-23T00:11:03.713Z,38.10
2018-07-23T00:13:32.047Z,35.77
2018-07-23T00:16:00.292Z,38.67
2018-07-23T00:18:28.537Z,38.47
2018-07-23T00:20:56.797Z,38.67
2018-07-23T00:23:25.029Z,38.40
2018-07-23T00:25:53.287Z,41.80
2018-07-23T00:28:21.512Z,39.47
2018-07-23T00:30:49.740Z,37.63
2018-07-23T00:33:17.983Z,34.13
2018-07-23T00:35:46.207Z,32.73
2018-07-23T00:38:14.462Z,33.63
2018-07-23T00:40:42.682Z,34.87
2018-07-23T00:43:10.923Z,33.53
2018-07-23T00:45:39.232Z,34.57
2018-07-23T00:48:07.508Z,36.27
2018-07-23T00:50:35.798Z,34.90
2018-07-23T00:53:04.083Z,35.30
2018-07-23T00:55:32.300Z,34.33
2018-07-23T00:58:00.541Z,34.40
2018-07-23T01:00:28.768Z,34.97
2018-07-23T01:03:01.264Z,35.10
2018-07-23T01:05:29.505Z,33.57
2018-07-23T01:07:57.732Z,33.53
2018-07-23T01:10:25.976Z,37.30
2018-07-23T01:12:54.312Z,40.03
2018-07-23T01:15:22.521Z,39.47
2018-07-23T01:17:50.872Z,39.23
2018-07-23T01:20:19.137Z,37.23
2018-07-23T01:22:47.359Z,35.80
2018-07-23T01:25:15.609Z,37.80
2018-07-23T01:27:43.864Z,34.80
2018-07-23T01:30:12.103Z,36.43
2018-07-23T01:32:40.328Z,35.43
2018-07-23T01:35:08.688Z,34.37
2018-07-23T01:37:36.976Z,35.90
2018-07-23T01:40:05.267Z,34.77
2018-07-23T01:42:33.492Z,33.77
2018-07-23T01:45:01.724Z,33.27
2018-07-23T01:47:29.948Z,34.20
2018-07-23T01:49:58.154Z,34.13
2018-07-23T01:52:26.460Z,31.90
2018-07-23T01:54:54.680Z,32.03
2018-07-23T01:57:22.927Z,31.60
2018-07-23T01:59:51.157Z,31.70
2018-07-23T02:02:26.206Z,32.97
2018-07-23T02:04:54.442Z,33.10
2018-07-23T02:07:22.672Z,31.73
2018-07-23T02:09:50.908Z,32.50
2018-07-23T02:12:19.215Z,34.20
2018-07-23T02:14:47.501Z,32.53
2018-07-23T02:17:15.779Z,32.43
2018-07-23T02:19:44.110Z,32.70
2018-07-23T02:22:12.433Z,33.27
2018-07-23T02:24:40.623Z,33.03
2018-07-23T02:27:08.861Z,32.73
2018-07-23T02:29:37.131Z,32.07
2018-07-23T02:32:05.424Z,32.20
2018-07-23T02:34:33.695Z,29.93
2018-07-23T02:37:01.996Z,32.60
2018-07-23T02:39:30.243Z,30.93
2018-07-23T02:41:58.470Z,29.60
2018-07-23T02:44:26.693Z,32.13
2018-07-23T02:46:54.929Z,30.20
2018-07-23T02:49:23.181Z,30.33
2018-07-23T02:51:51.432Z,31.20
2018-07-23T02:54:19.711Z,32.07
2018-07-23T02:56:47.944Z,31.47
2018-07-23T02:59:22.854Z,33.40
2018-07-23T03:01:51.095Z,32.93
2018-07-23T03:04:19.345Z,32.73
2018-07-23T03:06:47.645Z,32.97
2018-07-23T03:09:15.853Z,33.07
2018-07-23T03:11:44.141Z,31.43
2018-07-23T03:14:12.445Z,33.77
2018-07-23T03:16:40.685Z,32.03
2018-07-23T03:19:08.888Z,33.10
2018-07-23T03:21:37.132Z,33.77
2018-07-23T03:24:05.424Z,33.70
2018-07-23T03:26:33.693Z,32.37
2018-07-23T03:29:01.973Z,32.63
2018-07-23T03:31:30.182Z,33.27
2018-07-23T03:33:58.472Z,32.10
2018-07-23T03:36:26.692Z,33.77
2018-07-23T03:38:54.969Z,32.23
2018-07-23T03:41:23.336Z,31.50
2018-07-23T03:43:51.793Z,29.93
2018-07-23T03:46:20.044Z,30.23
2018-07-23T03:48:48.345Z,29.27
2018-07-23T03:51:16.564Z,31.83
2018-07-23T03:53:44.783Z,33.47
2018-07-23T03:56:13.861Z,33.07
2018-07-23T03:58:42.110Z,32.50
2018-07-23T04:01:10.448Z,32.47
2018-07-23T04:03:38.678Z,30.97
2018-07-23T04:06:07.086Z,31.53
2018-07-23T04:08:35.348Z,33.23
2018-07-23T04:11:03.592Z,32.43
2018-07-23T04:13:31.825Z,32.47
2018-07-23T04:16:00.097Z,32.43
2018-07-23T04:18:28.361Z,33.67
2018-07-23T04:20:56.573Z,30.30
2018-07-23T04:23:24.576Z,29.83
2018-07-23T04:25:52.818Z,30.03
2018-07-23T04:28:21.069Z,30.77
2018-07-23T04:30:49.364Z,31.87
2018-07-23T04:33:17.644Z,30.83
2018-07-23T04:35:45.853Z,31.57
2018-07-23T04:38:14.095Z,31.67
2018-07-23T04:40:42.381Z,33.07
2018-07-23T04:43:10.647Z,33.73
2018-07-23T04:45:39.098Z,34.47
2018-07-23T04:48:07.315Z,37.00
2018-07-23T04:50:35.598Z,33.73
2018-07-23T04:53:03.873Z,33.07
2018-07-23T04:55:32.145Z,35.70
2018-07-23T04:58:00.407Z,33.50
2018-07-23T05:00:28.693Z,32.37
2018-07-23T05:02:56.916Z,32.57
2018-07-23T05:05:25.178Z,31.63
2018-07-23T05:07:53.454Z,31.10
2018-07-23T05:10:21.742Z,30.90
2018-07-23T05:12:49.989Z,29.33
2018-07-23T05:15:18.316Z,28.57
2018-07-23T05:17:46.596Z,29.83
2018-07-23T05:20:14.820Z,27.63
2018-07-23T05:22:43.181Z,26.97
2018-07-23T05:25:11.408Z,26.30
2018-07-23T05:27:39.698Z,26.50
2018-07-23T05:30:07.961Z,23.70
2018-07-23T05:32:36.259Z,22.67
2018-07-23T05:35:04.860Z,24.47
2018-07-23T05:37:33.096Z,25.00
2018-07-23T05:40:01.334Z,24.53
2018-07-23T05:42:29.573Z,23.83
2018-07-23T05:44:57.839Z,23.73
2018-07-23T05:47:26.080Z,22.07
2018-07-23T05:49:54.281Z,22.23
2018-07-23T05:52:22.526Z,22.20
2018-07-23T05:54:50.836Z,20.60
2018-07-23T05:57:19.076Z,21.57
2018-07-23T05:59:47.297Z,22.67
2018-07-23T06:02:15.549Z,23.97
2018-07-23T06:04:43.830Z,22.27
2018-07-23T06:07:12.738Z,22.67
2018-07-23T06:09:40.953Z,22.10
2018-07-23T06:12:09.604Z,22.03
2018-07-23T06:14:37.808Z,21.00
2018-07-23T06:17:06.503Z,23.00
2018-07-23T06:19:34.772Z,22.67
2018-07-23T06:22:03.052Z,22.23
2018-07-23T06:24:31.270Z,22.63
2018-07-23T06:26:59.535Z,22.07
2018-07-23T06:29:27.851Z,21.03
2018-07-23T06:31:56.096Z,21.10
2018-07-23T06:34:24.812Z,21.93
2018-07-23T06:36:53.553Z,21.10
2018-07-23T06:39:21.808Z,20.63
2018-07-23T06:41:50.032Z,20.03
2018-07-23T06:44:18.309Z,20.97
2018-07-23T06:46:46.528Z,18.93
2018-07-23T06:49:14.760Z,19.20
2018-07-23T06:51:42.975Z,18.47
2018-07-23T06:54:11.345Z,19.73
2018-07-23T06:56:39.745Z,18.67
2018-07-23T06:59:07.943Z,17.73
2018-07-23T07:01:36.232Z,17.67
2018-07-23T07:06:39.164Z,18.27
2018-07-23T07:09:08.335Z,17.93
2018-07-23T07:11:36.665Z,17.73
2018-07-23T07:14:05.277Z,18.40
2018-07-23T07:16:33.549Z,19.57
2018-07-23T07:19:01.777Z,19.50
2018-07-23T07:21:30.027Z,18.53
2018-07-23T07:23:58.301Z,18.63
2018-07-23T07:26:26.548Z,17.47
2018-07-23T07:28:54.777Z,18.43
2018-07-23T07:31:23.450Z,18.97
2018-07-23T07:33:51.671Z,19.87
2018-07-23T07:36:19.907Z,19.03
2018-07-23T07:38:48.168Z,20.47
2018-07-23T07:41:16.690Z,20.47
2018-07-23T07:43:44.931Z,19.63
2018-07-23T07:46:13.205Z,19.77
2018-07-23T07:48:41.414Z,20.27
2018-07-23T07:51:09.752Z,19.53
2018-07-23T07:53:37.991Z,18.27
2018-07-23T07:56:06.290Z,19.67
2018-07-23T07:58:34.588Z,19.57
2018-07-23T08:01:02.831Z,19.33
2018-07-23T08:03:31.275Z,18.93
2018-07-23T08:05:59.502Z,19.17
2018-07-23T08:08:28.083Z,17.80
2018-07-23T08:10:56.420Z,18.53
2018-07-23T08:13:24.680Z,18.77
2018-07-23T08:15:53.046Z,18.60
2018-07-23T08:18:21.461Z,20.10
2018-07-23T08:20:49.741Z,19.20
2018-07-23T08:23:18.065Z,17.97
2018-07-23T08:25:46.305Z,19.67
2018-07-23T08:28:14.553Z,18.97
2018-07-23T08:30:42.840Z,18.80
2018-07-23T08:33:11.173Z,18.77
2018-07-23T08:35:40.033Z,20.00
2018-07-23T08:38:08.293Z,19.70
2018-07-23T08:40:36.526Z,19.17
2018-07-23T08:43:04.828Z,19.37
2018-07-23T08:45:33.113Z,18.20
2018-07-23T08:48:01.373Z,18.37
2018-07-23T08:50:29.617Z,20.00
2018-07-23T08:52:58.027Z,19.07
2018-07-23T08:55:26.747Z,18.60
2018-07-23T08:57:55.102Z,19.57
2018-07-23T09:00:23.405Z,21.33
2018-07-23T09:02:51.645Z,21.10
2018-07-23T09:05:19.987Z,21.60
2018-07-23T09:10:19.385Z,20.73
2018-07-23T09:12:47.603Z,20.17
2018-07-23T09:15:15.872Z,20.03
2018-07-23T09:17:44.157Z,20.30
2018-07-23T09:20:12.397Z,21.50
2018-07-23T09:22:40.649Z,21.50
2018-07-23T09:25:08.873Z,20.57
2018-07-23T09:27:37.115Z,20.47
2018-07-23T09:30:06.359Z,22.77
2018-07-23T09:32:34.585Z,21.23
2018-07-23T09:35:02.808Z,20.80
2018-07-23T09:37:31.004Z,19.47
2018-07-23T09:39:59.284Z,21.37
2018-07-23T09:42:27.484Z,19.27
2018-07-23T09:44:55.755Z,18.43
2018-07-23T09:47:23.949Z,19.53
2018-07-23T09:49:52.179Z,18.33
2018-07-23T09:52:20.420Z,16.80
2018-07-23T09:54:48.978Z,17.53
2018-07-23T09:57:17.203Z,14.50
2018-07-23T09:59:45.440Z,17.30
2018-07-23T10:02:13.692Z,17.57
2018-07-23T10:04:41.913Z,16.00
2018-07-23T10:07:10.161Z,15.57
2018-07-23T10:09:38.368Z,15.87
2018-07-23T10:12:06.649Z,15.07
2018-07-23T10:14:34.867Z,15.27
2018-07-23T10:17:04.034Z,16.87
2018-07-23T10:19:32.290Z,16.63
2018-07-23T10:22:00.512Z,15.57
2018-07-23T10:24:28.743Z,14.47
2018-07-23T10:26:56.996Z,15.50
2018-07-23T10:29:25.203Z,15.03
2018-07-23T10:31:53.447Z,14.30
2018-07-23T10:34:21.433Z,13.30
2018-07-23T10:36:49.659Z,12.23
2018-07-23T10:39:17.899Z,13.50
2018-07-23T10:41:46.124Z,12.33
2018-07-23T10:44:31.791Z,13.07
2018-07-23T10:46:59.983Z,10.97
2018-07-23T10:49:33.148Z,12.20
2018-07-23T10:52:01.362Z,11.13
2018-07-23T10:54:29.555Z,10.97
2018-07-23T10:56:57.788Z,11.73
2018-07-23T10:59:25.983Z,11.40
2018-07-23T11:01:54.232Z,10.10
2018-07-23T11:04:23.396Z,9.83
2018-07-23T11:06:51.501Z,10.33
2018-07-23T11:09:20.250Z,10.63
2018-07-23T11:11:48.443Z,10.87
2018-07-23T11:14:18.567Z,10.60
2018-07-23T11:16:46.791Z,9.90
2018-07-23T11:19:15.036Z,10.77
2018-07-23T11:21:44.036Z,11.50
2018-07-23T11:24:15.945Z,11.50
2018-07-23T11:26:45.245Z,9.97
2018-07-23T11:29:14.491Z,9.77
2018-07-23T11:31:43.519Z,11.97
2018-07-23T11:34:11.771Z,11.87
2018-07-23T11:36:40.018Z,12.53
2018-07-23T11:39:15.027Z,12.67
2018-07-23T11:41:45.108Z,12.00
2018-07-23T11:44:15.309Z,9.93
2018-07-23T11:46:44.307Z,11.17
2018-07-23T11:49:12.557Z,10.63
2018-07-23T11:51:40.817Z,11.33
2018-07-23T11:54:09.011Z,9.97
2018-07-23T11:56:37.268Z,10.70
2018-07-23T11:59:05.422Z,9.90
2018-07-23T12:01:33.368Z,9.97
2018-07-23T12:04:01.590Z,9.60
2018-07-23T12:06:29.801Z,9.70
2018-07-23T12:08:58.040Z,9.83
2018-07-23T12:11:26.249Z,10.23
2018-07-23T12:20:29.053Z,10.60
2018-07-23T12:25:48.058Z,9.97
2018-07-23T12:28:16.464Z,9.70
2018-07-23T12:30:44.716Z,10.37
2018-07-23T12:33:12.981Z,10.07
2018-07-23T12:35:41.215Z,9.97
2018-07-23T12:38:09.469Z,10.20
2018-07-23T12:40:37.669Z,10.17
2018-07-23T12:43:05.932Z,9.70
2018-07-23T12:45:34.124Z,9.00
2018-07-23T12:48:02.368Z,8.37
2018-07-23T12:50:30.568Z,9.30
2018-07-23T12:52:58.847Z,9.10
2018-07-23T12:55:27.107Z,9.00
2018-07-23T12:57:55.324Z,9.17
2018-07-23T13:00:23.577Z,8.83
2018-07-23T13:02:51.620Z,9.10
2018-07-23T13:05:19.984Z,9.07
2018-07-23T13:07:48.172Z,8.65
2018-07-23T13:10:16.428Z,10.00
2018-07-23T13:12:44.636Z,9.13
2018-07-23T13:15:13.021Z,9.05
2018-07-23T13:17:41.236Z,8.93
2018-07-23T13:20:09.448Z,9.10
2018-07-23T13:22:37.700Z,8.85
2018-07-23T13:25:05.929Z,9.23
2018-07-23T13:27:34.189Z,9.03
2018-07-23T13:30:02.473Z,8.48
2018-07-23T13:32:30.737Z,9.40
2018-07-23T13:34:58.973Z,8.73
2018-07-23T13:37:27.191Z,9.58
2018-07-23T13:39:55.475Z,8.88
2018-07-23T13:42:23.712Z,9.13
2018-07-23T13:44:51.919Z,9.70
2018-07-23T13:47:20.133Z,9.58
2018-07-23T13:49:48.368Z,9.43
2018-07-23T13:52:17.067Z,9.73
2018-07-23T13:54:45.295Z,8.20
2018-07-23T13:57:13.289Z,9.03
2018-07-23T13:59:41.508Z,9.45
2018-07-23T14:02:09.825Z,9.25
2018-07-23T14:04:38.029Z,9.23
2018-07-23T14:07:06.257Z,8.88
2018-07-23T14:09:34.467Z,9.33
2018-07-23T14:12:02.823Z,8.80
2018-07-23T14:15:34.065Z,9.00
2018-07-23T14:18:02.305Z,9.60
2018-07-23T14:20:30.565Z,10.48
2018-07-23T14:22:58.827Z,9.40
2018-07-23T14:25:27.062Z,8.88
2018-07-23T14:27:55.326Z,9.18
2018-07-23T14:30:23.528Z,9.55
2018-07-23T14:32:51.842Z,8.68
2018-07-23T14:35:20.044Z,8.95
2018-07-23T14:37:48.310Z,9.90
2018-07-23T14:40:16.554Z,8.38
2018-07-23T14:42:44.841Z,9.18
2018-07-23T14:45:13.076Z,9.13
2018-07-23T14:47:41.287Z,8.60
2018-07-23T14:50:09.554Z,8.98
2018-07-23T14:52:37.744Z,8.63
2018-07-23T14:55:05.993Z,8.43
2018-07-23T14:57:34.311Z,8.15
2018-07-23T15:00:02.515Z,7.80
2018-07-23T15:02:30.974Z,8.30
2018-07-23T15:04:59.176Z,8.35
2018-07-23T15:07:27.427Z,7.58
2018-07-23T15:09:55.673Z,6.92
2018-07-23T15:12:23.880Z,7.78
2018-07-23T15:14:52.109Z,7.25
2018-07-23T15:17:20.307Z,7.60
2018-07-23T15:19:48.548Z,7.72
2018-07-23T15:22:16.753Z,7.08
2018-07-23T15:24:45.213Z,7.85
2018-07-23T15:27:13.417Z,7.35
2018-07-23T15:29:41.665Z,7.45
2018-07-23T15:32:09.865Z,8.10
2018-07-23T15:34:38.083Z,7.87
2018-07-23T15:37:06.400Z,7.08
2018-07-23T15:39:34.619Z,7.12
2018-07-23T15:42:02.831Z,8.03
2018-07-23T15:44:31.227Z,7.67
2018-07-23T15:46:59.288Z,7.47
2018-07-23T15:49:27.493Z,8.08
2018-07-23T15:51:55.730Z,7.92
2018-07-23T15:54:23.955Z,8.45
2018-07-23T15:56:52.346Z,7.58
2018-07-23T15:59:20.551Z,7.90
2018-07-23T16:01:48.783Z,7.67
2018-07-23T16:04:16.987Z,8.35
2018-07-23T16:06:45.319Z,7.65
2018-07-23T16:09:14.589Z,7.53
2018-07-23T16:11:43.307Z,7.70
2018-07-23T16:14:12.028Z,8.38
2018-07-23T16:16:40.274Z,7.75
2018-07-23T16:19:08.995Z,8.38
2018-07-23T16:21:37.528Z,6.92
2018-07-23T16:24:06.315Z,7.33
2018-07-23T16:26:34.515Z,6.97
2018-07-23T16:29:02.736Z,7.30
2018-07-23T16:31:31.001Z,7.92
2018-07-23T16:33:59.223Z,6.90
2018-07-23T16:36:27.448Z,7.10
2018-07-23T16:38:55.653Z,7.45
2018-07-23T16:41:23.877Z,6.80
2018-07-23T16:43:52.169Z,7.25
2018-07-23T16:46:20.417Z,7.95
2018-07-23T16:48:48.632Z,7.33
2018-07-23T16:51:16.935Z,7.35
2018-07-23T16:53:45.161Z,7.22
2018-07-23T16:56:13.137Z,7.33
2018-07-23T16:58:41.364Z,7.87
2018-07-23T17:01:09.555Z,7.85
2018-07-23T17:03:37.776Z,7.15
2018-07-23T17:06:06.016Z,7.87
2018-07-23T17:08:34.241Z,8.50
2018-07-23T17:11:02.485Z,8.18
2018-07-23T17:13:30.661Z,8.13
2018-07-23T17:15:58.876Z,7.58
2018-07-23T17:18:27.261Z,7.55
2018-07-23T17:20:55.205Z,7.37
2018-07-23T17:23:23.411Z,7.47
2018-07-23T17:25:51.612Z,7.30
2018-07-23T17:28:19.849Z,7.05
2018-07-23T17:30:48.059Z,7.35
2018-07-23T17:33:16.355Z,7.08
2018-07-23T17:35:44.588Z,7.10
2018-07-23T17:38:12.826Z,7.05
2018-07-23T17:40:40.995Z,7.05
2018-07-23T17:43:09.286Z,7.35
2018-07-23T17:45:37.526Z,7.37
2018-07-23T17:48:05.951Z,7.47
2018-07-23T17:50:34.191Z,6.45
2018-07-23T17:53:02.387Z,7.10
2018-07-23T17:55:30.601Z,6.75
2018-07-23T17:57:58.855Z,7.20
2018-07-23T18:00:27.071Z,6.83
2018-07-23T18:02:55.515Z,6.80
2018-07-23T18:05:23.839Z,6.15
2018-07-23T18:07:52.062Z,7.03
2018-07-23T18:10:20.295Z,6.60
2018-07-23T18:12:48.535Z,6.85
2018-07-23T18:15:16.771Z,6.90
2018-07-23T18:17:45.053Z,6.90
2018-07-23T18:20:13.272Z,6.72
2018-07-23T18:22:41.508Z,6.30
2018-07-23T18:25:09.754Z,6.97
2018-07-23T18:27:37.968Z,6.15
2018-07-23T18:30:06.754Z,7.00
2018-07-23T18:32:34.979Z,6.65
2018-07-23T18:35:03.575Z,6.60
2018-07-23T18:37:31.539Z,6.72
2018-07-23T18:39:59.736Z,6.37
2018-07-23T18:42:27.990Z,7.45
2018-07-23T18:44:56.179Z,7.40
2018-07-23T18:47:24.387Z,7.93
2018-07-23T18:49:55.839Z,7.30
2018-07-23T18:52:24.960Z,7.80
2018-07-23T18:54:54.648Z,8.23
2018-07-23T18:57:22.867Z,8.37
2018-07-23T18:59:51.084Z,7.97
2018-07-23T19:02:20.181Z,8.37
2018-07-23T19:04:48.166Z,8.53
2018-07-23T19:07:16.394Z,9.07
2018-07-23T19:09:44.640Z,9.73
2018-07-23T19:12:13.110Z,8.87
2018-07-23T19:14:41.170Z,8.83
2018-07-23T19:17:11.747Z,8.73
2018-07-23T19:19:39.960Z,9.13
2018-07-23T19:22:08.216Z,8.87
2018-07-23T19:24:36.455Z,9.23
2018-07-23T19:27:04.995Z,10.50
2018-07-23T19:29:33.199Z,10.00
2018-07-23T19:32:01.426Z,10.40
2018-07-23T19:34:29.752Z,11.07
2018-07-23T19:36:57.963Z,11.93
2018-07-23T19:39:26.191Z,11.70
2018-07-23T19:41:54.758Z,12.23
2018-07-23T19:44:22.953Z,11.33
2018-07-23T19:46:51.163Z,11.43
2018-07-23T19:49:19.383Z,10.70
2018-07-23T19:51:47.619Z,11.17
2018-07-23T19:54:15.842Z,12.37
2018-07-23T19:56:44.067Z,13.07
2018-07-23T19:59:12.395Z,12.67
2018-07-23T20:01:40.698Z,12.60
2018-07-23T20:04:08.934Z,12.57
2018-07-23T20:06:36.904Z,13.23
2018-07-23T20:09:08.025Z,13.83
2018-07-23T20:11:36.252Z,13.50
2018-07-23T20:14:04.504Z,14.07
2018-07-23T20:16:32.787Z,14.17
2018-07-23T20:19:00.987Z,14.80
2018-07-23T20:21:29.195Z,16.43
2018-07-23T20:23:57.402Z,16.50
2018-07-23T20:26:25.644Z,15.27
2018-07-23T20:28:53.852Z,14.53
2018-07-23T20:31:22.119Z,14.47
2018-07-23T20:33:50.765Z,15.47
2018-07-23T20:36:18.717Z,15.43
2018-07-23T20:38:46.918Z,16.03
2018-07-23T20:41:14.978Z,15.40
2018-07-23T20:43:43.216Z,16.20
2018-07-23T20:46:12.136Z,15.97
2018-07-23T20:48:40.419Z,16.57
2018-07-23T20:51:08.634Z,16.87
2018-07-23T20:53:36.839Z,18.13
2018-07-23T20:56:05.052Z,17.07
2018-07-23T20:58:33.247Z,17.47
2018-07-23T21:01:01.450Z,17.33
2018-07-23T21:03:29.752Z,16.63
2018-07-23T21:05:57.947Z,18.30
2018-07-23T21:08:26.951Z,18.33
2018-07-23T21:10:55.161Z,17.87
2018-07-23T21:13:23.439Z,18.07
2018-07-23T21:15:51.636Z,18.23
2018-07-23T21:18:19.867Z,18.53
2018-07-23T21:20:48.059Z,17.93
2018-07-23T21:23:16.288Z,17.80
2018-07-23T21:25:44.479Z,18.70
2018-07-23T21:28:12.696Z,19.43
2018-07-23T21:30:40.962Z,20.83
2018-07-23T21:33:09.240Z,19.73
2018-07-23T21:35:37.443Z,19.67
2018-07-23T21:38:05.823Z,20.73
2018-07-23T21:40:34.045Z,20.30
2018-07-23T21:43:02.247Z,19.77
2018-07-23T21:45:30.489Z,20.40
2018-07-23T21:47:58.676Z,18.73
2018-07-23T21:50:26.865Z,19.77
2018-07-23T21:52:55.074Z,21.90
2018-07-23T21:55:24.355Z,19.83
2018-07-23T21:57:52.562Z,20.83
2018-07-23T22:00:20.799Z,20.90
2018-07-23T22:02:49.001Z,20.63
2018-07-23T22:05:17.208Z,21.20
2018-07-23T22:07:45.422Z,21.63
2018-07-23T22:10:13.667Z,21.33
2018-07-23T22:12:41.875Z,21.30
2018-07-23T22:15:11.306Z,21.10
2018-07-23T22:17:39.512Z,20.53
2018-07-23T22:20:08.595Z,22.53
2018-07-23T22:22:36.811Z,23.23
2018-07-23T22:25:05.263Z,21.17
2018-07-23T22:27:33.487Z,21.70
2018-07-23T22:30:01.686Z,22.37
2018-07-23T22:32:29.895Z,21.37
2018-07-23T22:34:58.144Z,23.80
2018-07-23T22:37:26.107Z,22.73
2018-07-23T22:39:54.311Z,22.03
2018-07-23T22:42:23.721Z,23.17
2018-07-23T22:44:51.944Z,24.27
2018-07-23T22:47:20.263Z,22.83
2018-07-23T22:49:48.603Z,24.47
2018-07-23T22:52:16.795Z,24.70
2018-07-23T22:54:45.028Z,25.13
2018-07-23T22:57:13.321Z,24.83
2018-07-23T22:59:41.503Z,25.73
2018-07-23T23:02:09.760Z,25.40
2018-07-23T23:04:37.972Z,24.63
2018-07-23T23:07:06.219Z,27.43
2018-07-23T23:09:34.669Z,26.23
2018-07-23T23:12:03.316Z,27.20
2018-07-23T23:14:31.519Z,29.37
2018-07-23T23:16:59.719Z,32.97
2018-07-23T23:19:27.971Z,32.10
2018-07-23T23:21:56.335Z,29.30
2018-07-23T23:24:24.640Z,30.67
2018-07-23T23:26:53.299Z,29.77
2018-07-23T23:29:21.540Z,28.33
2018-07-23T23:31:49.787Z,29.20
2018-07-23T23:34:18.074Z,29.73
2018-07-23T23:36:46.317Z,28.97
2018-07-23T23:39:14.501Z,27.93
2018-07-23T23:41:42.723Z,28.20
2018-07-23T23:44:10.943Z,29.37
2018-07-23T23:46:39.159Z,27.30
2018-07-23T23:49:07.427Z,28.73
2018-07-23T23:51:35.615Z,29.47
2018-07-23T23:54:03.806Z,28.83
2018-07-23T23:56:32.003Z,27.43
2018-07-23T23:59:00.198Z,27.67
